Terminal Aerodrome Forecast
Issued by NWS

Home | Current Version | Previous Version | Text Only | Print | Product List | Glossary On
Versions: 1 2 3 4 5 6 7 8 9 10 11 12 13 14 15 16 17 18 19 20
000
FTUS46 KMFR 020543
TAFOTH
TAF
KOTH 020543Z 0206/0306 24004KT 3SM -RA BR SCT006 BKN012 OVC020
     FM020900 28005KT 5SM -SHRA BR SCT008 BKN020 OVC035
     FM021100 29005KT 6SM -SHRA BR SCT010 BKN025 BKN035
     FM021700 30007KT P6SM VCSH SCT020 BKN035 BKN050
     FM021900 33010KT P6SM VCSH BKN035 BKN050
     FM030300 33007KT P6SM SCT025 SCT050 SCT100=

USA.gov is the U.S. government's official web portal to all federal, state and local government web resources and services.